Time;durP1;ratioP1;P1;durP2;ratioP2;P2;SDS_P1;SDS_P2;PMS_P1;PMS_P2;Temp;Humidity;BMP_temperature;BMP_pressure;BME280_temperature;BME280_humidity;BME280_pressure;Samples;Min_cycle;Max_cycle;Signal;HPM_P1;HPM_P2
2023/08/02 00:00:18;;;;;;;2.08;0.80;;;17.20;99.90;;;;;;5052807;28;20404;-78
2023/08/02 00:02:45;;;;;;;1.00;0.60;;;17.10;99.90;;;;;;5046218;28;20052;-78
2023/08/02 00:05:12;;;;;;;1.60;0.65;;;17.20;99.90;;;;;;5039851;28;20075;-78
2023/08/02 00:07:39;;;;;;;0.90;0.60;;;17.20;99.90;;;;;;5047361;28;20165;-78
2023/08/02 00:10:06;;;;;;;2.33;1.27;;;17.20;99.90;;;;;;5059157;28;20137;-77
2023/08/02 00:12:33;;;;;;;0.95;0.60;;;17.20;99.90;;;;;;5058063;28;20590;-77
2023/08/02 00:15:01;;;;;;;1.25;0.47;;;17.20;1.00;;;;;;5037330;28;20174;-78
2023/08/02 00:17:28;;;;;;;1.17;0.57;;;17.20;1.00;;;;;;5059145;28;20052;-79
2023/08/02 00:19:55;;;;;;;1.00;0.57;;;17.20;1.00;;;;;;5055757;28;20048;-78
2023/08/02 00:22:22;;;;;;;2.20;0.90;;;17.10;1.00;;;;;;5050534;28;20044;-79
2023/08/02 00:24:48;;;;;;;2.30;0.82;;;17.10;47.30;;;;;;5039517;28;20515;-79
2023/08/02 00:27:15;;;;;;;1.30;0.80;;;17.10;79.80;;;;;;5060674;28;20141;-79
2023/08/02 00:29:42;;;;;;;0.90;0.60;;;17.10;99.90;;;;;;5059685;28;20040;-79
2023/08/02 00:32:09;;;;;;;1.27;0.70;;;17.10;99.90;;;;;;5061152;28;20094;-78
2023/08/02 00:34:36;;;;;;;1.10;0.65;;;17.10;99.90;;;;;;5048005;28;20780;-78
2023/08/02 00:37:04;;;;;;;1.42;0.73;;;17.00;99.90;;;;;;5039712;28;20049;-78
2023/08/02 00:39:31;;;;;;;1.85;0.77;;;17.00;99.90;;;;;;5050063;28;20045;-78
2023/08/02 00:41:57;;;;;;;1.58;0.98;;;17.10;99.90;;;;;;5038221;28;20148;-78
2023/08/02 00:44:24;;;;;;;1.42;0.65;;;17.10;99.90;;;;;;5022748;28;20067;-78
2023/08/02 00:46:51;;;;;;;1.65;0.60;;;17.10;99.90;;;;;;5015223;28;20076;-78
2023/08/02 00:49:18;;;;;;;1.77;0.90;;;17.10;99.90;;;;;;5061853;28;20052;-78
2023/08/02 00:51:45;;;;;;;3.38;1.15;;;17.10;99.90;;;;;;5031033;28;20068;-78
2023/08/02 00:54:12;;;;;;;1.90;0.82;;;17.00;99.90;;;;;;5057785;28;20075;-78
2023/08/02 00:56:39;;;;;;;2.22;0.95;;;17.00;99.90;;;;;;5059856;28;20056;-79
2023/08/02 00:59:06;;;;;;;1.75;0.80;;;16.90;99.90;;;;;;5060922;28;20048;-78
2023/08/02 01:01:33;;;;;;;1.52;0.88;;;16.90;99.90;;;;;;5059472;28;20547;-78
2023/08/02 01:04:00;;;;;;;1.15;0.50;;;16.90;1.00;;;;;;5040579;28;20163;-78
2023/08/02 01:06:36;;;;;;;2.40;0.95;;;16.80;37.40;;;;;;5028865;28;20103;-78
2023/08/02 01:09:20;;;;;;;2.10;0.70;;;16.80;99.90;;;;;;5060386;28;20097;-78
2023/08/02 01:11:51;;;;;;;1.42;0.70;;;16.80;99.90;;;;;;5058263;28;20052;-78
2023/08/02 01:14:20;;;;;;;1.20;0.65;;;16.70;99.90;;;;;;5028180;28;20742;-78
2023/08/02 01:16:48;;;;;;;0.98;0.55;;;16.70;99.90;;;;;;5057008;28;20052;-78
2023/08/02 01:19:19;;;;;;;1.40;0.80;;;16.70;1.00;;;;;;5050501;28;20106;-77
2023/08/02 01:21:50;;;;;;;0.75;0.50;;;16.60;1.00;;;;;;5031199;28;20037;-77
2023/08/02 01:24:18;;;;;;;2.28;0.60;;;16.60;99.90;;;;;;5061195;28;20060;-77
2023/08/02 01:26:47;;;;;;;2.03;0.82;;;16.60;99.90;;;;;;5030302;28;20044;-77
2023/08/02 01:29:15;;;;;;;0.50;0.50;;;16.60;99.90;;;;;;5035410;28;20047;-78
2023/08/02 01:31:42;;;;;;;1.23;0.73;;;16.60;99.90;;;;;;5038154;28;20049;-77
2023/08/02 01:34:09;;;;;;;0.68;0.50;;;16.60;99.90;;;;;;5031441;28;20123;-77
2023/08/02 01:36:36;;;;;;;2.30;0.70;;;16.60;99.90;;;;;;5037284;28;20114;-78
2023/08/02 01:39:03;;;;;;;0.55;0.50;;;16.60;99.90;;;;;;5049186;28;20052;-78
2023/08/02 01:41:29;;;;;;;0.90;0.43;;;16.60;99.90;;;;;;5048109;28;20084;-77
2023/08/02 01:43:56;;;;;;;1.30;0.32;;;16.60;99.90;;;;;;5063936;28;20053;-77
2023/08/02 01:46:23;;;;;;;0.60;0.55;;;16.60;99.90;;;;;;5058454;28;20045;-79
2023/08/02 01:48:53;;;;;;;1.75;0.32;;;16.60;1.00;;;;;;5031086;28;20175;-78
2023/08/02 01:51:20;;;;;;;1.02;0.65;;;16.70;1.00;;;;;;5037851;28;20490;-78
2023/08/02 01:53:49;;;;;;;0.65;0.40;;;16.70;1.00;;;;;;5044464;28;20117;-78
2023/08/02 01:56:16;;;;;;;1.42;0.50;;;16.70;2.00;;;;;;5014877;28;20474;-78
2023/08/02 01:58:43;;;;;;;0.52;0.40;;;16.70;99.90;;;;;;5013005;28;20585;-80
2023/08/02 02:01:10;;;;;;;0.75;0.30;;;16.70;99.90;;;;;;5061605;28;20044;-77
2023/08/02 02:03:37;;;;;;;0.70;0.40;;;16.70;99.90;;;;;;5065512;28;20049;-79
2023/08/02 02:06:04;;;;;;;0.70;0.30;;;16.60;99.90;;;;;;5066704;28;20177;-79
2023/08/02 02:08:32;;;;;;;0.55;0.47;;;16.60;99.90;;;;;;5028887;28;20048;-79
2023/08/02 02:10:59;;;;;;;0.60;0.38;;;16.60;99.90;;;;;;5030388;28;20037;-78
2023/08/02 02:13:26;;;;;;;0.50;0.40;;;16.60;1.00;;;;;;5028731;28;20045;-79
2023/08/02 02:15:53;;;;;;;0.40;0.30;;;16.50;1.00;;;;;;5046460;28;20076;-78
2023/08/02 02:18:21;;;;;;;0.43;0.28;;;16.50;1.00;;;;;;5048634;28;20078;-79
2023/08/02 02:20:49;;;;;;;0.38;0.20;;;16.50;32.70;;;;;;5019128;28;20102;-79
2023/08/02 02:23:16;;;;;;;0.45;0.22;;;16.50;49.90;;;;;;5014470;28;20526;-78
2023/08/02 02:25:43;;;;;;;0.50;0.30;;;16.60;92.40;;;;;;5064428;28;20471;-79
2023/08/02 02:28:11;;;;;;;0.22;0.20;;;16.60;99.90;;;;;;5065125;28;20052;-79
2023/08/02 02:30:41;;;;;;;0.10;0.10;;;16.60;99.90;;;;;;5048967;28;20080;-81
2023/08/02 02:33:08;;;;;;;0.47;0.35;;;16.60;99.90;;;;;;5030141;28;20064;-78
2023/08/02 02:35:35;;;;;;;0.32;0.20;;;16.60;99.90;;;;;;5064565;28;20052;-79
2023/08/02 02:38:02;;;;;;;0.20;0.20;;;16.60;99.90;;;;;;5047523;28;20101;-79
2023/08/02 02:40:29;;;;;;;0.70;0.22;;;16.50;99.90;;;;;;5038011;28;20053;-78
2023/08/02 02:42:55;;;;;;;0.30;0.30;;;16.60;99.90;;;;;;5029336;28;20726;-78
2023/08/02 02:45:22;;;;;;;0.75;0.10;;;16.60;99.90;;;;;;5045529;28;20106;-79
2023/08/02 02:47:49;;;;;;;0.65;0.35;;;16.60;99.90;;;;;;5058376;28;20041;-79
2023/08/02 02:50:17;;;;;;;0.20;0.20;;;16.50;99.90;;;;;;5032021;28;20136;-78
2023/08/02 02:52:44;;;;;;;0.20;0.20;;;16.60;99.90;;;;;;5048041;28;20409;-77
2023/08/02 02:55:11;;;;;;;0.10;0.10;;;16.50;99.90;;;;;;5047224;28;20639;-78
2023/08/02 02:57:38;;;;;;;0.35;0.28;;;16.50;99.90;;;;;;5031865;28;20139;-78
2023/08/02 03:00:05;;;;;;;0.10;0.10;;;16.60;99.90;;;;;;5029805;28;20532;-78
2023/08/02 03:02:32;;;;;;;0.30;0.30;;;16.50;99.90;;;;;;5044575;28;20498;-78
2023/08/02 03:04:59;;;;;;;0.10;0.10;;;16.50;99.90;;;;;;5061980;28;20114;-78
2023/08/02 03:07:26;;;;;;;0.10;0.10;;;16.50;99.90;;;;;;5030918;28;20129;-79
2023/08/02 03:09:53;;;;;;;0.10;0.10;;;16.50;99.90;;;;;;5059508;28;20144;-78
2023/08/02 03:12:21;;;;;;;0.03;0.03;;;16.60;99.90;;;;;;5031429;28;20049;-78
2023/08/02 03:14:49;;;;;;;0.10;0.10;;;16.60;99.90;;;;;;5046634;28;20431;-79
2023/08/02 03:17:15;;;;;;;0.10;0.10;;;16.60;1.00;;;;;;5044324;28;20084;-80
2023/08/02 03:19:42;;;;;;;0.00;0.00;;;16.60;1.00;;;;;;5028443;28;20662;-78
2023/08/02 03:22:09;;;;;;;0.00;0.00;;;16.60;1.00;;;;;;5027575;28;20044;-78
2023/08/02 03:24:36;;;;;;;0.10;0.10;;;16.70;1.00;;;;;;5020403;28;20075;-78
2023/08/02 03:27:03;;;;;;;0.00;0.00;;;16.70;1.00;;;;;;5044064;28;20110;-78
2023/08/02 03:29:30;;;;;;;0.10;0.10;;;16.70;1.00;;;;;;5044924;28;20079;-78
2023/08/02 03:31:56;;;;;;;0.20;0.10;;;16.70;1.00;;;;;;5041425;28;20138;-79
2023/08/02 03:34:23;;;;;;;0.03;0.03;;;16.70;1.00;;;;;;5037693;28;20124;-78
2023/08/02 03:36:50;;;;;;;0.10;0.00;;;16.80;1.00;;;;;;5043761;28;20056;-78
2023/08/02 03:39:17;;;;;;;0.00;0.00;;;16.80;1.00;;;;;;5043984;28;20498;-79
2023/08/02 03:41:44;;;;;;;0.08;0.08;;;16.80;1.00;;;;;;5060929;28;20068;-79
2023/08/02 03:44:11;;;;;;;0.00;0.00;;;16.90;1.00;;;;;;5055020;28;20040;-79
2023/08/02 03:46:38;;;;;;;0.00;0.00;;;16.90;1.00;;;;;;5036518;28;20048;-79
2023/08/02 03:49:05;;;;;;;0.00;0.00;;;16.90;1.00;;;;;;5061547;28;20051;-78
2023/08/02 03:51:32;;;;;;;0.00;0.00;;;17.00;1.00;;;;;;5045555;28;20080;-79
2023/08/02 03:54:00;;;;;;;0.45;0.10;;;17.00;1.00;;;;;;5037726;28;20365;-79
2023/08/02 03:56:27;;;;;;;0.00;0.00;;;17.00;1.00;;;;;;5026427;28;20625;-79
2023/08/02 03:58:54;;;;;;;0.00;0.00;;;17.10;1.00;;;;;;5046665;28;20127;-78
2023/08/02 04:01:21;;;;;;;0.00;0.00;;;17.10;1.00;;;;;;5046971;28;20392;-78
2023/08/02 04:03:47;;;;;;;0.00;0.00;;;17.20;1.00;;;;;;5069554;28;20497;-78
2023/08/02 04:06:14;;;;;;;0.00;0.00;;;17.20;1.00;;;;;;5026282;28;20454;-79
2023/08/02 04:08:41;;;;;;;0.10;0.10;;;17.20;1.00;;;;;;5054985;28;20113;-79
2023/08/02 04:11:09;;;;;;;0.00;0.00;;;17.30;1.20;;;;;;5065379;28;20419;-79
2023/08/02 04:13:36;;;;;;;0.00;0.00;;;17.30;5.40;;;;;;5075984;28;20625;-79
2023/08/02 04:16:03;;;;;;;0.00;0.00;;;17.40;19.00;;;;;;5048967;28;20545;-79
2023/08/02 04:18:30;;;;;;;0.00;0.00;;;17.40;95.80;;;;;;5064946;28;20047;-79
2023/08/02 04:20:59;;;;;;;0.32;0.10;;;17.50;99.90;;;;;;5065085;28;20448;-79
2023/08/02 04:23:26;;;;;;;0.00;0.00;;;17.50;99.90;;;;;;5046126;28;20549;-78
2023/08/02 04:25:54;;;;;;;0.05;0.00;;;17.50;99.90;;;;;;5042525;28;20515;-78
2023/08/02 04:28:23;;;;;;;0.00;0.00;;;17.60;99.90;;;;;;5046349;28;20041;-78
2023/08/02 04:30:51;;;;;;;0.10;0.10;;;17.60;99.90;;;;;;5046878;28;20128;-80
2023/08/02 04:33:18;;;;;;;0.08;0.08;;;17.60;99.90;;;;;;5043367;28;20068;-79
2023/08/02 04:35:45;;;;;;;0.10;0.10;;;17.70;99.90;;;;;;5025566;28;20072;-79
2023/08/02 04:38:12;;;;;;;0.30;0.10;;;17.70;99.90;;;;;;5028050;28;20388;-79
2023/08/02 04:40:39;;;;;;;0.10;0.10;;;17.70;99.90;;;;;;5043315;28;20044;-79
2023/08/02 04:43:06;;;;;;;0.10;0.10;;;17.80;99.90;;;;;;5025696;28;20071;-79
2023/08/02 04:45:33;;;;;;;0.20;0.10;;;17.80;99.90;;;;;;5048675;28;20071;-79
2023/08/02 04:47:59;;;;;;;0.10;0.10;;;17.80;99.90;;;;;;5044341;28;20569;-79
2023/08/02 04:50:26;;;;;;;0.00;0.00;;;17.80;99.90;;;;;;5074177;28;20048;-79
2023/08/02 04:52:53;;;;;;;0.00;0.00;;;17.80;99.90;;;;;;5076058;28;20044;-79
2023/08/02 04:55:20;;;;;;;0.10;0.10;;;17.80;99.90;;;;;;5062380;28;20051;-79
2023/08/02 04:57:47;;;;;;;0.10;0.10;;;17.80;99.90;;;;;;5048122;28;20048;-80
2023/08/02 05:00:15;;;;;;;0.10;0.10;;;17.80;99.90;;;;;;5048379;28;20412;-79
2023/08/02 05:02:42;;;;;;;0.00;0.00;;;17.80;99.90;;;;;;5032703;28;20160;-79
2023/08/02 05:05:09;;;;;;;0.10;0.10;;;17.90;99.90;;;;;;5025736;28;20048;-79
2023/08/02 05:07:36;;;;;;;0.98;0.20;;;17.90;99.90;;;;;;5036438;28;20051;-79
2023/08/02 05:10:07;;;;;;;0.10;0.10;;;17.90;99.90;;;;;;5039881;28;20507;-79
2023/08/02 05:12:36;;;;;;;0.30;0.22;;;17.90;99.90;;;;;;5054650;28;20151;-79
2023/08/02 05:15:03;;;;;;;0.10;0.10;;;17.90;99.90;;;;;;5057893;28;20064;-79
2023/08/02 05:17:30;;;;;;;0.10;0.10;;;18.00;99.90;;;;;;5036545;28;20131;-79
2023/08/02 05:19:57;;;;;;;1.50;0.40;;;18.00;99.90;;;;;;5054295;28;20124;-79
2023/08/02 05:22:24;;;;;;;0.68;0.40;;;18.00;99.90;;;;;;5034148;28;20048;-79
2023/08/02 05:24:54;;;;;;;1.05;0.43;;;18.00;99.90;;;;;;5026753;28;20469;-78
2023/08/02 05:27:21;;;;;;;0.70;0.30;;;18.00;99.90;;;;;;5039347;28;20063;-78
2023/08/02 05:29:48;;;;;;;0.75;0.50;;;18.00;90.10;;;;;;5071721;28;20113;-77
2023/08/02 05:32:15;;;;;;;1.02;0.60;;;18.00;34.30;;;;;;5028760;28;20476;-77
2023/08/02 05:34:41;;;;;;;0.63;0.50;;;18.00;22.50;;;;;;5056817;28;20385;-78
2023/08/02 05:37:08;;;;;;;0.80;0.52;;;18.00;13.10;;;;;;5024507;28;20108;-79
2023/08/02 05:39:36;;;;;;;0.95;0.43;;;18.00;1.00;;;;;;5048466;28;20064;-78
2023/08/02 05:42:03;;;;;;;1.13;0.52;;;18.10;1.00;;;;;;5048646;28;20087;-78
2023/08/02 05:44:30;;;;;;;0.55;0.38;;;18.20;1.00;;;;;;5038256;28;20049;-78
2023/08/02 05:46:57;;;;;;;0.55;0.30;;;18.20;1.00;;;;;;5043786;28;20111;-78
2023/08/02 05:49:23;;;;;;;0.50;0.45;;;18.20;1.00;;;;;;5032311;28;20052;-79
2023/08/02 05:51:50;;;;;;;0.82;0.50;;;18.20;1.00;;;;;;5024510;28;20456;-78
2023/08/02 05:54:17;;;;;;;0.73;0.47;;;18.30;1.00;;;;;;5039995;28;20128;-78
2023/08/02 05:56:44;;;;;;;1.08;0.60;;;18.30;1.00;;;;;;5043908;28;20483;-78
2023/08/02 05:59:11;;;;;;;1.13;0.52;;;18.30;99.90;;;;;;5044975;28;20045;-78
2023/08/02 06:01:38;;;;;;;0.88;0.50;;;18.30;99.90;;;;;;5026781;28;20049;-78
2023/08/02 06:04:05;;;;;;;2.40;0.80;;;18.30;99.90;;;;;;5041361;28;20040;-78
2023/08/02 06:06:32;;;;;;;0.63;0.43;;;18.30;99.90;;;;;;5026829;28;20118;-77
2023/08/02 06:08:59;;;;;;;1.27;0.40;;;18.30;99.90;;;;;;5039112;28;20610;-77
2023/08/02 06:11:26;;;;;;;1.40;0.50;;;18.30;99.90;;;;;;5017103;28;20068;-78
2023/08/02 06:13:52;;;;;;;0.80;0.40;;;18.30;99.90;;;;;;5050033;28;20114;-78
2023/08/02 06:16:20;;;;;;;1.88;0.60;;;18.20;99.90;;;;;;5027308;28;20353;-78
2023/08/02 06:18:47;;;;;;;1.10;0.50;;;18.20;99.90;;;;;;5051433;28;20076;-78
2023/08/02 06:21:13;;;;;;;1.00;0.63;;;18.20;99.90;;;;;;5047283;28;20105;-78
2023/08/02 06:23:40;;;;;;;0.68;0.20;;;18.20;99.90;;;;;;5037744;28;20102;-77
2023/08/02 06:26:07;;;;;;;0.40;0.30;;;18.20;99.90;;;;;;5027141;28;20057;-78
2023/08/02 06:28:34;;;;;;;1.00;0.40;;;18.20;99.90;;;;;;5061082;28;20053;-78
2023/08/02 06:31:01;;;;;;;0.35;0.32;;;18.20;99.90;;;;;;5035035;28;20048;-78
2023/08/02 06:33:28;;;;;;;0.20;0.20;;;18.30;99.90;;;;;;5037112;28;20055;-79
2023/08/02 06:35:55;;;;;;;0.57;0.40;;;18.30;99.90;;;;;;5042327;28;20044;-78
2023/08/02 06:38:22;;;;;;;0.50;0.38;;;18.30;99.90;;;;;;5046078;28;20055;-78
2023/08/02 06:40:49;;;;;;;0.90;0.57;;;18.30;99.90;;;;;;5045224;28;20161;-77
2023/08/02 06:43:16;;;;;;;1.35;0.43;;;18.30;99.90;;;;;;5034612;28;20045;-78
2023/08/02 06:45:46;;;;;;;1.08;0.32;;;18.20;99.90;;;;;;5043497;28;20454;-78
2023/08/02 06:48:16;;;;;;;0.90;0.40;;;18.20;99.90;;;;;;5018161;28;20045;-78
2023/08/02 06:50:43;;;;;;;0.75;0.40;;;18.20;99.90;;;;;;5046430;28;20448;-78
2023/08/02 06:53:12;;;;;;;0.82;0.40;;;18.20;99.90;;;;;;5043853;28;20388;-78
2023/08/02 06:55:39;;;;;;;2.13;0.70;;;18.20;99.90;;;;;;5026080;28;20052;-77
2023/08/02 06:58:06;;;;;;;0.32;0.32;;;18.20;99.90;;;;;;5026220;28;20048;-78
2023/08/02 07:00:33;;;;;;;1.05;0.40;;;18.30;99.90;;;;;;5009039;28;20045;-78
2023/08/02 07:03:00;;;;;;;0.57;0.32;;;18.30;99.90;;;;;;5039384;28;20665;-78
2023/08/02 07:05:28;;;;;;;0.60;0.30;;;18.40;99.90;;;;;;5021898;28;21318;-78
2023/08/02 07:07:59;;;;;;;1.67;0.60;;;18.50;99.90;;;;;;5033532;28;20052;-78
2023/08/02 07:10:27;;;;;;;1.02;0.57;;;18.50;99.90;;;;;;5018399;28;20061;-78
2023/08/02 07:12:55;;;;;;;0.75;0.40;;;18.30;99.90;;;;;;5033168;28;20053;-78
2023/08/02 07:15:22;;;;;;;1.02;0.63;;;18.30;99.90;;;;;;5056365;28;20056;-77
2023/08/02 07:17:49;;;;;;;1.77;0.80;;;18.20;99.90;;;;;;5023308;28;20452;-78
2023/08/02 07:20:19;;;;;;;1.48;0.63;;;18.20;99.90;;;;;;5026775;28;20043;-78
2023/08/02 07:22:46;;;;;;;1.00;0.50;;;18.20;99.90;;;;;;5035562;28;20491;-78
2023/08/02 07:25:13;;;;;;;1.48;0.57;;;18.10;99.90;;;;;;5054273;28;20053;-78
2023/08/02 07:27:43;;;;;;;1.75;0.63;;;17.90;99.90;;;;;;5036340;28;20048;-78
2023/08/02 07:30:10;;;;;;;1.58;0.60;;;17.70;99.90;;;;;;5025302;28;20666;-79
2023/08/02 07:32:37;;;;;;;0.85;0.60;;;17.70;99.90;;;;;;5037811;28;20064;-78
2023/08/02 07:35:04;;;;;;;1.52;0.60;;;17.70;99.90;;;;;;5020438;28;20063;-79
2023/08/02 07:37:31;;;;;;;1.33;0.57;;;17.70;99.90;;;;;;5005783;28;20045;-79
2023/08/02 07:39:59;;;;;;;1.48;0.40;;;17.70;99.90;;;;;;5027114;28;20086;-79
2023/08/02 07:42:26;;;;;;;0.82;0.50;;;17.80;99.90;;;;;;5028506;28;20412;-80
2023/08/02 07:45:05;;;;;;;1.77;0.63;;;17.80;99.90;;;;;;5034286;28;20044;-78
2023/08/02 07:47:33;;;;;;;1.50;0.60;;;17.80;86.90;;;;;;5002912;28;20070;-79
2023/08/02 07:50:00;;;;;;;0.82;0.40;;;17.90;1.00;;;;;;5014246;28;20071;-80
2023/08/02 07:52:27;;;;;;;1.77;0.60;;;18.00;1.00;;;;;;5018486;28;20367;-79
2023/08/02 07:54:54;;;;;;;1.70;0.70;;;18.00;99.90;;;;;;5051699;28;20574;-79
2023/08/02 07:57:23;;;;;;;1.02;0.40;;;18.10;1.00;;;;;;5022992;28;20136;-79
2023/08/02 07:59:50;;;;;;;0.55;0.43;;;18.20;99.90;;;;;;5016516;28;20902;-79
2023/08/02 08:02:18;;;;;;;1.48;0.68;;;18.30;99.90;;;;;;5013758;28;20076;-79
2023/08/02 08:04:45;;;;;;;0.75;0.50;;;18.20;99.90;;;;;;5035778;28;20062;-79
2023/08/02 08:07:12;;;;;;;2.45;0.70;;;18.20;32.20;;;;;;5020101;28;20394;-79
2023/08/02 08:09:39;;;;;;;1.27;0.43;;;18.40;1.00;;;;;;5025094;28;20755;-79
2023/08/02 08:12:07;;;;;;;1.40;0.77;;;18.40;1.00;;;;;;5012387;28;20061;-79
2023/08/02 08:14:34;;;;;;;1.88;0.60;;;18.40;99.90;;;;;;5040393;28;20155;-79
2023/08/02 08:17:01;;;;;;;1.55;0.77;;;18.40;1.00;;;;;;5036437;28;20153;-81
2023/08/02 08:19:28;;;;;;;1.35;0.50;;;18.50;99.90;;;;;;5003654;28;20116;-79
2023/08/02 08:21:56;;;;;;;2.03;0.82;;;18.60;99.90;;;;;;5005071;28;20052;-81
2023/08/02 08:24:23;;;;;;;1.45;0.60;;;18.60;32.80;;;;;;5017948;28;20041;-80
2023/08/02 08:26:50;;;;;;;1.63;0.60;;;18.70;1.00;;;;;;5024001;28;20529;-80
2023/08/02 08:29:17;;;;;;;1.40;0.45;;;18.70;11.90;;;;;;5033604;28;20471;-80
2023/08/02 08:31:44;;;;;;;1.48;0.50;;;18.80;99.90;;;;;;5015217;28;20053;-80
2023/08/02 08:34:13;;;;;;;1.50;0.40;;;18.80;99.90;;;;;;5043926;28;20080;-80
2023/08/02 08:36:40;;;;;;;1.20;0.60;;;18.90;99.90;;;;;;5018396;28;20045;-79
2023/08/02 08:39:09;;;;;;;1.23;0.40;;;19.00;99.90;;;;;;5012502;28;20061;-79
2023/08/02 08:41:36;;;;;;;1.13;0.40;;;19.30;99.90;;;;;;5036204;28;20554;-79
2023/08/02 08:44:03;;;;;;;1.65;0.57;;;19.40;99.90;;;;;;5040936;28;20127;-79
2023/08/02 08:46:31;;;;;;;1.23;0.70;;;19.30;99.90;;;;;;5052069;28;20472;-79
2023/08/02 08:49:01;;;;;;;1.45;0.52;;;19.30;21.50;;;;;;5040220;28;20135;-79
2023/08/02 08:51:32;;;;;;;1.27;0.60;;;19.40;99.90;;;;;;5036097;28;20471;-79
2023/08/02 08:54:04;;;;;;;1.40;0.52;;;19.50;99.90;;;;;;5043659;28;20041;-78
2023/08/02 08:56:31;;;;;;;1.00;0.57;;;19.60;24.00;;;;;;5027252;28;20047;-79
2023/08/02 08:58:59;;;;;;;1.42;0.65;;;19.60;99.90;;;;;;5042293;28;20044;-79
2023/08/02 09:01:26;;;;;;;1.30;0.52;;;19.70;1.00;;;;;;5027123;28;20060;-79
2023/08/02 09:03:56;;;;;;;1.08;0.55;;;19.80;94.20;;;;;;5037349;28;20127;-78
2023/08/02 09:06:23;;;;;;;1.50;0.60;;;20.00;1.00;;;;;;5026064;28;20052;-78
2023/08/02 09:08:49;;;;;;;1.10;0.65;;;20.20;1.00;;;;;;5035735;28;20190;-80
2023/08/02 09:11:16;;;;;;;1.65;0.63;;;20.40;99.90;;;;;;5047212;28;20467;-79
2023/08/02 09:13:43;;;;;;;0.93;0.47;;;20.60;99.90;;;;;;5048689;28;20075;-78
2023/08/02 09:16:12;;;;;;;1.17;0.50;;;20.50;99.90;;;;;;5030310;28;20095;-79
2023/08/02 09:18:46;;;;;;;1.02;0.60;;;20.00;99.90;;;;;;5030578;28;20052;-78
2023/08/02 09:21:18;;;;;;;1.60;0.50;;;19.50;99.90;;;;;;5048525;28;20496;-79
2023/08/02 09:23:55;;;;;;;1.33;0.50;;;19.00;99.90;;;;;;5024179;28;20668;-79
2023/08/02 09:26:22;;;;;;;1.05;0.60;;;18.80;99.90;;;;;;5030496;28;20052;-79
2023/08/02 09:29:16;;;;;;;0.45;0.30;;;18.50;1.00;;;;;;5049098;28;20048;-79
2023/08/02 09:31:43;;;;;;;0.45;0.30;;;18.20;99.90;;;;;;5044835;28;20467;-79
2023/08/02 09:34:10;;;;;;;0.90;0.30;;;18.10;99.90;;;;;;5032821;28;20075;-80
2023/08/02 09:36:37;;;;;;;0.98;0.50;;;18.10;99.90;;;;;;5065080;28;20562;-79
2023/08/02 09:39:14;;;;;;;1.20;0.45;;;18.10;1.00;;;;;;5023983;28;20050;-81
2023/08/02 09:41:41;;;;;;;0.95;0.40;;;18.10;99.90;;;;;;5069056;28;20597;-79
2023/08/02 09:44:25;;;;;;;0.95;0.50;;;18.10;90.50;;;;;;5049010;28;20093;-79
2023/08/02 09:46:53;;;;;;;0.73;0.45;;;18.30;99.90;;;;;;5054416;28;20494;-79
2023/08/02 09:49:20;;;;;;;1.38;0.65;;;18.50;1.00;;;;;;5054541;28;20052;-79
2023/08/02 09:51:48;;;;;;;0.95;0.50;;;18.80;1.00;;;;;;5025287;28;20056;-79
2023/08/02 09:54:15;;;;;;;2.22;0.60;;;19.00;1.00;;;;;;5018000;28;20052;-79
2023/08/02 09:56:42;;;;;;;1.63;0.82;;;18.90;1.00;;;;;;5052808;28;20508;-81
2023/08/02 09:59:09;;;;;;;0.77;0.52;;;19.00;99.90;;;;;;5049918;28;20044;-79
2023/08/02 10:01:36;;;;;;;3.05;1.10;;;19.10;99.90;;;;;;5048926;28;20048;-79
2023/08/02 10:04:05;;;;;;;3.95;1.35;;;19.30;99.90;;;;;;5038007;28;20482;-80
2023/08/02 10:06:44;;;;;;;1.30;0.70;;;19.40;99.90;;;;;;5044291;28;20109;-79
2023/08/02 10:09:14;;;;;;;1.95;0.80;;;19.70;99.90;;;;;;5041030;28;20061;-79
2023/08/02 10:11:45;;;;;;;1.80;0.77;;;19.90;99.90;;;;;;5065290;28;20152;-79
2023/08/02 10:14:12;;;;;;;1.70;0.80;;;19.80;99.90;;;;;;5057507;28;20109;-79
2023/08/02 10:16:39;;;;;;;1.58;0.57;;;19.70;99.90;;;;;;5038477;28;20056;-79
2023/08/02 10:19:07;;;;;;;1.73;0.70;;;19.90;99.90;;;;;;5052074;28;20129;-79
2023/08/02 10:21:35;;;;;;;2.38;1.15;;;20.00;99.90;;;;;;5048587;28;20071;-79
2023/08/02 10:24:02;;;;;;;2.55;0.90;;;20.20;99.90;;;;;;5029056;28;20109;-79
2023/08/02 10:26:30;;;;;;;1.80;0.85;;;20.40;99.90;;;;;;5028223;28;20053;-83
2023/08/02 10:28:57;;;;;;;2.90;0.90;;;20.40;99.90;;;;;;5033610;28;20052;-77
2023/08/02 10:31:24;;;;;;;1.63;0.80;;;20.50;99.90;;;;;;5045315;28;20070;-78
2023/08/02 10:33:51;;;;;;;2.85;0.90;;;20.60;99.90;;;;;;5037038;28;20059;-78
2023/08/02 10:36:18;;;;;;;1.67;0.80;;;20.40;99.90;;;;;;5041588;28;20499;-78
2023/08/02 10:38:46;;;;;;;2.58;0.90;;;20.50;99.90;;;;;;5025297;28;20146;-78
2023/08/02 10:41:14;;;;;;;2.75;0.85;;;20.50;99.90;;;;;;5041261;28;20136;-78
2023/08/02 10:43:53;;;;;;;1.55;0.85;;;20.40;99.90;;;;;;5042893;28;20134;-77
2023/08/02 10:46:25;;;;;;;2.20;0.93;;;20.20;99.90;;;;;;5062322;28;20136;-77
2023/08/02 10:48:52;;;;;;;4.03;1.45;;;20.00;99.90;;;;;;5036426;28;20045;-77
2023/08/02 10:51:32;;;;;;;3.25;1.15;;;19.80;1.00;;;;;;5023554;28;20593;-80
2023/08/02 10:54:12;;;;;;;2.70;1.13;;;19.70;77.00;;;;;;5036422;28;20040;-78
2023/08/02 10:57:09;;;;;;;1.95;1.38;;;20.00;1.00;;;;;;5059285;28;20064;-78
2023/08/02 10:59:35;;;;;;;2.08;0.80;;;20.40;1.00;;;;;;5030070;28;20056;-79
2023/08/02 11:02:08;;;;;;;2.40;0.80;;;20.50;99.90;;;;;;5047282;28;20079;-79
2023/08/02 11:04:37;;;;;;;2.72;0.90;;;20.50;99.90;;;;;;5055468;28;20040;-79
2023/08/02 11:07:16;;;;;;;2.25;0.93;;;20.40;99.90;;;;;;5031266;28;20049;-78
2023/08/02 11:09:44;;;;;;;2.92;1.17;;;20.40;99.90;;;;;;5046713;28;20075;-79
2023/08/02 11:12:18;;;;;;;2.35;0.90;;;20.70;99.90;;;;;;5048455;28;20094;-79
2023/08/02 11:14:46;;;;;;;3.10;0.80;;;20.90;99.90;;;;;;5061085;28;20044;-80
2023/08/02 11:17:20;;;;;;;1.73;0.85;;;21.00;99.90;;;;;;5050133;28;20117;-79
2023/08/02 11:19:53;;;;;;;3.40;1.02;;;21.00;99.90;;;;;;5068536;28;20440;-79
2023/08/02 11:22:23;;;;;;;1.30;0.60;;;21.10;98.90;;;;;;5067698;28;20511;-81
2023/08/02 11:24:51;;;;;;;1.77;0.90;;;21.10;98.70;;;;;;5038371;28;20045;-81
2023/08/02 11:27:18;;;;;;;1.70;0.73;;;21.20;99.90;;;;;;5036448;28;20075;-79
2023/08/02 11:30:06;;;;;;;1.85;0.75;;;21.20;98.60;;;;;;5043443;28;20045;-81
2023/08/02 11:32:36;;;;;;;1.52;0.80;;;21.20;98.90;;;;;;5039603;28;20114;-80
2023/08/02 11:35:04;;;;;;;1.80;0.90;;;21.20;98.30;;;;;;5051778;28;20048;-79
2023/08/02 11:37:31;;;;;;;2.65;1.05;;;21.00;95.40;;;;;;5038988;28;20083;-81
2023/08/02 11:40:01;;;;;;;2.00;1.05;;;21.00;99.50;;;;;;5043274;28;20464;-76
2023/08/02 11:42:31;;;;;;;2.55;1.08;;;20.70;99.90;;;;;;5044603;28;20105;-76
2023/08/02 11:44:57;;;;;;;2.03;0.80;;;20.70;1.00;;;;;;5054097;28;20040;-76
2023/08/02 11:47:40;;;;;;;2.78;0.90;;;20.70;77.00;;;;;;5042628;28;20472;-74
2023/08/02 11:50:07;;;;;;;2.80;0.90;;;20.70;99.90;;;;;;5042558;28;20049;-74
2023/08/02 11:52:34;;;;;;;2.08;0.98;;;20.70;99.90;;;;;;5051212;28;20183;-76
2023/08/02 11:55:01;;;;;;;2.22;1.00;;;20.80;99.90;;;;;;5024360;28;20109;-76
2023/08/02 11:57:28;;;;;;;1.95;0.77;;;20.70;99.90;;;;;;5025105;28;20044;-75
2023/08/02 11:59:56;;;;;;;2.17;1.00;;;20.60;99.90;;;;;;5046519;28;20623;-75
2023/08/02 12:02:24;;;;;;;3.08;1.20;;;20.50;99.90;;;;;;5027292;28;20052;-75
2023/08/02 12:04:51;;;;;;;2.70;1.20;;;20.30;99.90;;;;;;5035127;28;20497;-75
2023/08/02 12:07:24;;;;;;;1.92;1.00;;;20.20;99.90;;;;;;5040214;28;20048;-75
2023/08/02 12:09:51;;;;;;;2.72;0.90;;;20.20;99.90;;;;;;5034960;28;20049;-75
2023/08/02 12:12:18;;;;;;;1.83;0.85;;;20.40;99.90;;;;;;5037832;28;20049;-75
2023/08/02 12:14:45;;;;;;;1.95;0.95;;;20.40;99.90;;;;;;5062866;28;20074;-74
2023/08/02 12:17:18;;;;;;;1.95;0.70;;;20.50;99.90;;;;;;5057640;28;20067;-75
2023/08/02 12:19:45;;;;;;;1.23;0.52;;;20.50;99.90;;;;;;5044150;28;20049;-75
2023/08/02 12:22:14;;;;;;;1.05;0.57;;;20.50;99.90;;;;;;5019889;28;20147;-79
2023/08/02 12:24:41;;;;;;;1.30;0.60;;;20.50;99.90;;;;;;5018615;28;20045;-74
2023/08/02 12:27:13;;;;;;;1.00;0.60;;;20.50;99.90;;;;;;5021344;28;20358;-74
2023/08/02 12:29:40;;;;;;;0.82;0.55;;;20.40;99.90;;;;;;5034855;28;20117;-74
2023/08/02 12:32:07;;;;;;;0.98;0.43;;;20.30;99.90;;;;;;5061103;28;20056;-74
2023/08/02 12:34:36;;;;;;;1.00;0.52;;;20.00;99.90;;;;;;5061436;28;20127;-74
2023/08/02 12:37:04;;;;;;;1.90;0.73;;;19.70;99.90;;;;;;5044153;28;20052;-75
2023/08/02 12:39:30;;;;;;;0.90;0.45;;;19.20;1.00;;;;;;5024587;28;20045;-74
2023/08/02 12:41:57;;;;;;;0.85;0.50;;;18.90;1.00;;;;;;5058157;28;20114;-74
2023/08/02 12:44:24;;;;;;;1.65;0.73;;;18.70;99.90;;;;;;5061793;28;20529;-74
2023/08/02 12:46:50;;;;;;;0.47;0.30;;;18.50;99.90;;;;;;5062323;28;20056;-75
2023/08/02 12:49:17;;;;;;;1.42;0.57;;;18.40;99.90;;;;;;5041390;28;20068;-74
2023/08/02 12:51:44;;;;;;;0.30;0.30;;;18.40;15.20;;;;;;5040428;28;20045;-74